Time;durP1;ratioP1;P1;durP2;ratioP2;P2;SDS_P1;SDS_P2;PMS_P1;PMS_P2;Temp;Humidity;BMP_temperature;BMP_pressure;BME280_temperature;BME280_humidity;BME280_pressure;Samples;Min_cycle;Max_cycle;Signal;HPM_P1;HPM_P2
2022/05/05 00:00:53;;;;;;;13.70;11.57;;;14.20;66.30;;;;;;4998448;28;20286;-89
2022/05/05 00:03:18;;;;;;;11.75;10.52;;;14.20;66.20;;;;;;5016794;28;20174;-89
2022/05/05 00:05:44;;;;;;;14.47;10.73;;;14.20;66.10;;;;;;5031272;28;20235;-86
2022/05/05 00:08:11;;;;;;;15.10;12.50;;;14.20;66.10;;;;;;5002952;28;20220;-87
2022/05/05 00:16:07;;;;;;;16.13;11.00;;;14.20;65.80;;;;;;5036772;28;20189;-88
2022/05/05 00:18:34;;;;;;;13.57;10.50;;;14.20;65.80;;;;;;5036165;28;20209;-87
2022/05/05 00:21:00;;;;;;;14.50;10.93;;;14.20;66.20;;;;;;5018400;28;20178;-87
2022/05/05 00:23:26;;;;;;;16.83;11.37;;;14.20;66.20;;;;;;4993644;28;20233;-87
2022/05/05 00:25:52;;;;;;;13.80;10.47;;;14.30;66.00;;;;;;5032977;28;20425;-87
2022/05/05 00:28:18;;;;;;;15.50;12.60;;;14.20;65.90;;;;;;5018197;28;20416;-86
2022/05/05 00:30:44;;;;;;;16.48;10.70;;;14.30;65.90;;;;;;5034920;28;20456;-87
2022/05/05 00:33:09;;;;;;;13.03;11.20;;;14.30;65.60;;;;;;5028143;28;20253;-86
2022/05/05 00:35:35;;;;;;;13.33;11.93;;;14.40;65.50;;;;;;5027704;28;20217;-87
2022/05/05 00:38:01;;;;;;;15.67;12.20;;;14.50;65.20;;;;;;5028048;28;20182;-85
2022/05/05 00:40:26;;;;;;;14.47;11.97;;;14.50;65.00;;;;;;5049389;28;20429;-86
2022/05/05 00:42:52;;;;;;;13.33;10.40;;;14.30;65.60;;;;;;5041843;28;20182;-88
2022/05/05 00:45:18;;;;;;;14.80;11.70;;;14.30;65.90;;;;;;5017847;28;20667;-88
2022/05/05 00:47:44;;;;;;;13.50;11.30;;;14.30;66.10;;;;;;5017201;28;20417;-88
2022/05/05 00:50:11;;;;;;;16.67;12.48;;;14.30;66.10;;;;;;5017122;28;20460;-88
2022/05/05 00:52:37;;;;;;;17.42;11.50;;;14.30;66.20;;;;;;5025492;28;20179;-87
2022/05/05 00:55:03;;;;;;;16.37;12.23;;;14.30;66.40;;;;;;5036536;28;20632;-85
2022/05/05 00:57:30;;;;;;;17.50;12.98;;;14.20;66.40;;;;;;5012302;28;20178;-86
2022/05/05 00:59:59;;;;;;;18.63;12.98;;;14.20;66.70;;;;;;5049222;28;20202;-83
2022/05/05 01:02:25;;;;;;;20.55;13.95;;;14.20;66.70;;;;;;5044624;28;20166;-86
2022/05/05 01:04:50;;;;;;;17.47;14.17;;;14.10;66.80;;;;;;5032334;28;20179;-85
2022/05/05 01:07:17;;;;;;;22.93;14.63;;;14.10;66.80;;;;;;4987206;28;20182;-85
2022/05/05 01:09:43;;;;;;;20.00;14.13;;;14.20;67.40;;;;;;5004573;28;20203;-88
2022/05/05 01:12:09;;;;;;;17.87;13.03;;;14.20;66.30;;;;;;5048951;28;20190;-85
2022/05/05 01:14:35;;;;;;;20.45;13.07;;;14.20;66.00;;;;;;4999594;28;20205;-86
2022/05/05 01:17:02;;;;;;;19.73;13.23;;;14.30;65.80;;;;;;5014139;28;20182;-86
2022/05/05 01:19:28;;;;;;;19.05;12.32;;;14.30;65.30;;;;;;4997038;28;20441;-86
2022/05/05 01:21:55;;;;;;;20.90;12.50;;;14.20;65.30;;;;;;5014732;28;20295;-86
2022/05/05 01:29:52;;;;;;;20.23;12.70;;;14.10;66.00;;;;;;5014543;28;20201;-89
2022/05/05 01:32:18;;;;;;;16.50;11.88;;;14.20;65.90;;;;;;4996675;28;20321;-86
2022/05/05 01:34:43;;;;;;;18.90;13.90;;;14.20;65.80;;;;;;4997327;28;20241;-84
2022/05/05 01:37:09;;;;;;;17.67;11.90;;;14.10;66.10;;;;;;5014575;28;21004;-86
2022/05/05 01:39:35;;;;;;;15.23;12.30;;;14.20;65.90;;;;;;5014712;28;20198;-86
2022/05/05 01:42:01;;;;;;;15.97;12.30;;;14.20;65.70;;;;;;5015313;28;20174;-87
2022/05/05 01:44:26;;;;;;;16.05;11.77;;;14.10;66.10;;;;;;4996980;28;20265;-86
2022/05/05 01:46:55;;;;;;;18.13;11.63;;;14.00;66.10;;;;;;4997405;28;20209;-87
2022/05/05 01:49:21;;;;;;;14.13;11.80;;;14.10;66.20;;;;;;4997558;28;20751;-86
2022/05/05 01:51:46;;;;;;;17.00;12.03;;;14.10;66.20;;;;;;5018283;28;20275;-87
2022/05/05 01:54:12;;;;;;;14.43;11.13;;;14.10;66.10;;;;;;5019545;28;20205;-86
2022/05/05 01:56:38;;;;;;;17.73;12.10;;;14.10;66.10;;;;;;5029405;28;20166;-85
2022/05/05 01:59:04;;;;;;;14.50;11.50;;;14.00;66.00;;;;;;5029949;28;20453;-86
2022/05/05 02:01:30;;;;;;;14.20;12.33;;;14.00;66.10;;;;;;5028914;28;20193;-84
2022/05/05 02:03:55;;;;;;;17.47;12.00;;;14.00;66.10;;;;;;5030468;28;20511;-87
2022/05/05 02:06:21;;;;;;;14.90;12.40;;;14.10;66.00;;;;;;5030372;28;20185;-86
2022/05/05 02:08:48;;;;;;;17.40;12.40;;;14.10;66.00;;;;;;5030553;28;20199;-86
2022/05/05 02:11:14;;;;;;;16.15;12.18;;;14.10;65.90;;;;;;5018035;28;20186;-86
2022/05/05 02:13:40;;;;;;;15.57;11.83;;;14.00;65.90;;;;;;5016339;28;20182;-88
2022/05/05 02:16:05;;;;;;;15.47;12.07;;;14.00;65.90;;;;;;5016615;28;20196;-88
2022/05/05 02:18:31;;;;;;;16.43;11.37;;;14.10;65.90;;;;;;5034628;28;20253;-87
2022/05/05 02:20:57;;;;;;;16.73;13.03;;;14.00;65.90;;;;;;5021788;28;20198;-85
2022/05/05 02:23:23;;;;;;;15.07;11.30;;;14.10;65.70;;;;;;5028997;28;20182;-86
2022/05/05 02:25:48;;;;;;;16.50;11.30;;;14.00;65.70;;;;;;5014889;28;20258;-87
2022/05/05 02:28:14;;;;;;;15.90;11.80;;;14.10;65.50;;;;;;4996050;28;20418;-84
2022/05/05 02:30:40;;;;;;;17.97;12.10;;;14.00;65.80;;;;;;4995727;28;20198;-85
2022/05/05 02:33:06;;;;;;;22.73;14.67;;;14.00;65.80;;;;;;4995677;28;20190;-85
2022/05/05 02:35:32;;;;;;;18.30;12.50;;;14.00;65.80;;;;;;5026845;28;20197;-85
2022/05/05 02:40:42;;;;;;;22.02;13.40;;;13.90;65.90;;;;;;5035171;28;20220;-85
2022/05/05 02:43:08;;;;;;;17.73;12.33;;;13.90;65.90;;;;;;5011105;28;20647;-85
2022/05/05 02:45:34;;;;;;;22.63;12.77;;;13.90;66.00;;;;;;4996900;28;20233;-85
2022/05/05 02:48:00;;;;;;;18.00;12.57;;;13.90;66.20;;;;;;5001388;28;20253;-87
2022/05/05 02:50:26;;;;;;;17.20;11.83;;;13.90;66.20;;;;;;5025143;28;20467;-82
2022/05/05 02:52:55;;;;;;;16.20;11.45;;;13.90;66.20;;;;;;5007635;28;20190;-86
2022/05/05 02:55:22;;;;;;;21.15;14.10;;;14.00;66.20;;;;;;5001195;28;20217;-86
2022/05/05 02:57:48;;;;;;;17.48;13.57;;;13.90;66.20;;;;;;5000129;28;20184;-86
2022/05/05 03:00:14;;;;;;;17.90;13.13;;;13.90;66.50;;;;;;4999822;28;20590;-87
2022/05/05 03:02:42;;;;;;;17.35;12.30;;;13.90;66.50;;;;;;5003661;28;20488;-83
2022/05/05 03:05:11;;;;;;;18.65;13.23;;;14.00;66.30;;;;;;5017830;28;20197;-85
2022/05/05 03:07:37;;;;;;;22.70;16.40;;;14.00;66.00;;;;;;5017101;28;20229;-86
2022/05/05 03:10:04;;;;;;;22.67;14.27;;;14.10;66.00;;;;;;5013177;28;20201;-86
2022/05/05 03:12:30;;;;;;;20.90;15.02;;;14.10;65.90;;;;;;5018192;28;20264;-85
2022/05/05 03:14:55;;;;;;;27.93;16.10;;;14.10;65.80;;;;;;5018197;28;20749;-85
2022/05/05 03:17:21;;;;;;;25.80;15.77;;;14.10;66.10;;;;;;5018573;28;20178;-86
2022/05/05 03:19:47;;;;;;;21.67;15.13;;;14.10;66.20;;;;;;5018459;28;20555;-84
2022/05/05 03:22:13;;;;;;;20.57;15.00;;;14.00;66.50;;;;;;5009865;28;20417;-85
2022/05/05 03:24:38;;;;;;;23.73;15.17;;;14.00;66.90;;;;;;5017520;28;20205;-85
2022/05/05 03:27:04;;;;;;;25.93;14.07;;;13.90;67.50;;;;;;5036310;28;20743;-85
2022/05/05 03:29:32;;;;;;;24.05;16.20;;;13.90;67.70;;;;;;5018824;28;20285;-85
2022/05/05 03:32:00;;;;;;;21.83;16.00;;;13.80;68.00;;;;;;5018254;28;20237;-85
2022/05/05 03:34:25;;;;;;;24.48;15.18;;;14.00;67.90;;;;;;5035992;28;20182;-86
2022/05/05 03:36:51;;;;;;;25.97;15.60;;;14.00;67.90;;;;;;5022734;28;20189;-84
2022/05/05 03:39:17;;;;;;;18.43;14.97;;;13.90;68.10;;;;;;5024659;28;20985;-84
2022/05/05 03:41:43;;;;;;;22.97;14.57;;;13.90;68.50;;;;;;5016288;28;20576;-86
2022/05/05 03:44:08;;;;;;;23.80;16.57;;;14.00;68.80;;;;;;5031313;28;20190;-86
2022/05/05 03:46:34;;;;;;;22.13;16.23;;;14.00;68.80;;;;;;5031229;28;20190;-86
2022/05/05 03:49:00;;;;;;;23.03;15.30;;;14.00;69.00;;;;;;5016203;28;20300;-86
2022/05/05 03:51:26;;;;;;;24.70;15.93;;;14.00;69.10;;;;;;5032318;28;20413;-84
2022/05/05 03:53:52;;;;;;;20.47;14.67;;;13.90;69.50;;;;;;5032283;28;20425;-85
2022/05/05 03:56:18;;;;;;;23.00;15.82;;;13.90;69.60;;;;;;5035635;28;20425;-84
2022/05/05 03:58:43;;;;;;;23.73;17.03;;;13.90;69.70;;;;;;5033446;28;20182;-87
2022/05/05 04:01:09;;;;;;;23.50;16.73;;;13.90;69.60;;;;;;5016863;28;20422;-86
2022/05/05 04:03:41;;;;;;;23.17;16.23;;;13.80;70.10;;;;;;5030666;28;20177;-85
2022/05/05 04:06:07;;;;;;;23.25;15.50;;;13.80;70.40;;;;;;4997755;28;20475;-85
2022/05/05 04:08:34;;;;;;;26.40;15.70;;;13.80;70.20;;;;;;5031947;28;20269;-85
2022/05/05 04:11:00;;;;;;;24.83;17.30;;;13.80;70.30;;;;;;5000516;28;20981;-84
2022/05/05 04:13:26;;;;;;;24.70;16.17;;;13.80;70.10;;;;;;5033438;28;20190;-86
2022/05/05 04:15:53;;;;;;;22.97;15.87;;;13.90;69.80;;;;;;4998390;28;20684;-86
2022/05/05 04:18:19;;;;;;;24.08;17.00;;;13.80;69.80;;;;;;4998682;28;20418;-86
2022/05/05 04:20:47;;;;;;;24.48;15.73;;;13.80;70.00;;;;;;4998990;28;20198;-85
2022/05/05 04:23:13;;;;;;;26.60;16.65;;;13.70;70.30;;;;;;4998222;28;20181;-85
2022/05/05 04:25:43;;;;;;;25.77;16.83;;;13.70;70.50;;;;;;4998638;28;20189;-85
2022/05/05 04:28:11;;;;;;;23.42;16.83;;;13.70;70.50;;;;;;5005602;28;20209;-87
2022/05/05 04:30:56;;;;;;;27.05;17.13;;;13.70;70.20;;;;;;5011015;28;20600;-85
2022/05/05 04:33:22;;;;;;;26.40;16.27;;;13.70;70.20;;;;;;5010007;28;20333;-86
2022/05/05 04:35:49;;;;;;;28.35;17.60;;;13.70;70.50;;;;;;5011108;28;20213;-85
2022/05/05 04:38:15;;;;;;;25.25;17.58;;;13.80;70.30;;;;;;5028694;28;20262;-86
2022/05/05 04:40:40;;;;;;;26.30;17.40;;;13.80;70.00;;;;;;5010372;28;20206;-87
2022/05/05 04:43:06;;;;;;;26.43;17.33;;;13.80;70.10;;;;;;5026241;28;20425;-83
2022/05/05 04:45:32;;;;;;;26.07;16.50;;;13.60;70.60;;;;;;5004759;28;20182;-87
2022/05/05 04:47:58;;;;;;;29.53;17.97;;;13.60;70.90;;;;;;5010130;28;20209;-85
2022/05/05 04:50:24;;;;;;;22.10;15.43;;;13.60;71.20;;;;;;5016990;28;20217;-84
2022/05/05 04:52:51;;;;;;;22.73;15.85;;;13.60;71.30;;;;;;5017813;28;20240;-86
2022/05/05 04:55:17;;;;;;;24.55;17.95;;;13.60;71.20;;;;;;5020341;28;20217;-85
2022/05/05 04:57:43;;;;;;;25.55;16.50;;;13.70;71.10;;;;;;5028855;28;20213;-86
2022/05/05 05:00:09;;;;;;;29.37;17.50;;;13.70;71.10;;;;;;5017332;28;20193;-84
2022/05/05 05:02:35;;;;;;;25.30;17.60;;;13.70;71.00;;;;;;5034383;28;20177;-85
2022/05/05 05:05:01;;;;;;;26.23;17.58;;;13.80;71.00;;;;;;5033636;28;20595;-84
2022/05/05 05:07:27;;;;;;;24.60;17.50;;;13.90;70.80;;;;;;5033894;28;20222;-84
2022/05/05 05:09:52;;;;;;;22.30;16.80;;;13.90;70.80;;;;;;5034320;28;20197;-84
2022/05/05 05:12:18;;;;;;;25.87;15.90;;;13.80;71.10;;;;;;5016710;28;20238;-85
2022/05/05 05:14:45;;;;;;;23.20;15.53;;;13.90;71.20;;;;;;5016714;28;20206;-86
2022/05/05 05:17:10;;;;;;;23.63;17.30;;;13.80;71.60;;;;;;5016847;28;20272;-85
2022/05/05 05:19:36;;;;;;;25.27;16.10;;;13.90;71.70;;;;;;5034613;28;20228;-85
2022/05/05 05:22:02;;;;;;;21.42;15.70;;;13.90;71.50;;;;;;5023265;28;20653;-85
2022/05/05 05:24:28;;;;;;;18.53;14.17;;;13.90;71.20;;;;;;5015187;28;20185;-84
2022/05/05 05:26:54;;;;;;;21.07;15.87;;;14.00;71.00;;;;;;5029927;28;20797;-86
2022/05/05 05:29:19;;;;;;;19.40;14.10;;;14.10;70.80;;;;;;4997208;28;20519;-85
2022/05/05 05:31:46;;;;;;;21.77;14.60;;;14.20;70.30;;;;;;5030788;28;20182;-85
2022/05/05 05:34:12;;;;;;;25.73;16.20;;;14.30;69.90;;;;;;4997657;28;20210;-85
2022/05/05 05:36:39;;;;;;;23.20;15.10;;;14.40;69.20;;;;;;5001438;28;20265;-84
2022/05/05 05:39:04;;;;;;;22.23;16.05;;;14.50;69.00;;;;;;5004211;28;20195;-84
2022/05/05 05:41:30;;;;;;;21.93;15.70;;;14.50;69.50;;;;;;4988125;28;20270;-85
2022/05/05 05:43:56;;;;;;;22.00;13.83;;;14.40;68.80;;;;;;5004738;28;20193;-84
2022/05/05 05:46:21;;;;;;;22.17;16.87;;;14.40;69.00;;;;;;5003325;28;20214;-84
2022/05/05 05:48:47;;;;;;;22.93;16.50;;;14.50;69.10;;;;;;4995893;28;20555;-84
2022/05/05 05:51:13;;;;;;;24.07;17.50;;;14.40;69.10;;;;;;5003446;28;20174;-85
2022/05/05 05:53:39;;;;;;;28.98;15.80;;;14.30;70.40;;;;;;5016217;28;20509;-85
2022/05/05 05:56:05;;;;;;;22.20;16.50;;;14.40;70.30;;;;;;5014068;28;20761;-85
2022/05/05 05:58:31;;;;;;;20.90;15.93;;;14.50;70.00;;;;;;5030528;28;20174;-85
2022/05/05 06:00:56;;;;;;;23.53;16.43;;;14.50;69.80;;;;;;4996929;28;20195;-85
2022/05/05 06:06:07;;;;;;;31.40;19.90;;;14.70;70.30;;;;;;5014202;28;20330;-84
2022/05/05 06:08:32;;;;;;;30.80;20.70;;;14.70;70.00;;;;;;5002813;28;20220;-86
2022/05/05 06:10:58;;;;;;;37.60;23.50;;;14.60;70.20;;;;;;5029355;28;20248;-85
2022/05/05 06:13:24;;;;;;;36.65;22.67;;;14.70;70.40;;;;;;4995944;28;20311;-85
2022/05/05 06:15:50;;;;;;;37.53;24.47;;;14.70;70.30;;;;;;5029337;28;20202;-84
2022/05/05 06:18:16;;;;;;;33.80;23.00;;;14.70;70.10;;;;;;4997366;28;20424;-87
2022/05/05 06:20:42;;;;;;;44.50;27.17;;;14.80;70.10;;;;;;5029765;28;20221;-85
2022/05/05 06:23:07;;;;;;;41.50;25.87;;;14.90;70.10;;;;;;5046268;28;20178;-85
2022/05/05 06:25:33;;;;;;;36.80;26.77;;;14.90;69.50;;;;;;5037326;28;20599;-85
2022/05/05 06:27:59;;;;;;;39.50;26.13;;;15.00;69.10;;;;;;5019996;28;20193;-85
2022/05/05 06:30:25;;;;;;;40.67;28.13;;;15.30;69.00;;;;;;5019608;28;20669;-84
2022/05/05 06:32:50;;;;;;;45.53;29.23;;;15.50;68.00;;;;;;5020451;28;20224;-86
2022/05/05 06:35:17;;;;;;;42.97;29.40;;;15.80;66.90;;;;;;5027799;28;20528;-83
2022/05/05 06:37:43;;;;;;;46.25;29.13;;;16.00;66.00;;;;;;5028409;28;20419;-83
2022/05/05 06:40:09;;;;;;;41.50;28.60;;;16.10;65.00;;;;;;5024584;28;20197;-86
2022/05/05 06:42:35;;;;;;;40.23;29.07;;;16.40;64.50;;;;;;5037268;28;20254;-85
2022/05/05 06:45:00;;;;;;;41.83;28.83;;;16.80;63.90;;;;;;5019608;28;20421;-84
2022/05/05 06:47:26;;;;;;;46.53;28.50;;;16.90;63.00;;;;;;5021249;28;20174;-85
2022/05/05 06:49:52;;;;;;;39.30;28.70;;;17.00;62.20;;;;;;5032723;28;20221;-85
2022/05/05 06:52:18;;;;;;;39.63;27.17;;;17.10;62.10;;;;;;5021785;28;20565;-85
2022/05/05 06:54:44;;;;;;;37.83;24.57;;;17.30;61.70;;;;;;5038051;28;20202;-85
2022/05/05 06:57:10;;;;;;;43.83;29.53;;;17.40;61.30;;;;;;5024397;28;20181;-84
2022/05/05 06:59:36;;;;;;;36.93;26.53;;;17.30;60.90;;;;;;5026260;28;20503;-83
2022/05/05 07:02:02;;;;;;;37.63;25.50;;;17.30;61.10;;;;;;5027806;28;20180;-87
2022/05/05 07:07:17;;;;;;;43.65;32.92;;;17.50;60.80;;;;;;5050264;28;20200;-85
2022/05/05 07:12:30;;;;;;;57.17;36.67;;;16.70;62.60;;;;;;5047838;28;20188;-86
2022/05/05 07:14:57;;;;;;;42.25;31.25;;;16.70;62.80;;;;;;5032059;28;20189;-86
2022/05/05 07:17:23;;;;;;;53.42;33.90;;;16.70;63.30;;;;;;5011435;28;20661;-85
2022/05/05 07:19:50;;;;;;;55.13;33.75;;;16.60;63.60;;;;;;5032641;28;20198;-86
2022/05/05 07:22:16;;;;;;;49.53;31.35;;;16.60;64.10;;;;;;5006371;28;20174;-87
2022/05/05 07:24:42;;;;;;;49.97;31.70;;;16.40;64.80;;;;;;5020385;28;20201;-84
2022/05/05 07:27:08;;;;;;;43.70;30.15;;;16.30;65.40;;;;;;5020689;28;20188;-86
2022/05/05 07:29:34;;;;;;;44.33;30.73;;;16.20;66.00;;;;;;5037412;28;20336;-85
2022/05/05 07:32:00;;;;;;;54.78;35.92;;;16.30;66.10;;;;;;5019217;28;20189;-84
2022/05/05 07:34:26;;;;;;;48.27;34.80;;;16.30;66.00;;;;;;5016289;28;20344;-87
2022/05/05 07:36:51;;;;;;;51.90;33.22;;;16.40;66.00;;;;;;5018732;28;20180;-86
2022/05/05 07:39:18;;;;;;;48.00;32.47;;;16.50;66.30;;;;;;5019120;28;20221;-85
2022/05/05 07:41:44;;;;;;;48.45;31.65;;;16.50;66.30;;;;;;5037494;28;20177;-84
2022/05/05 07:44:10;;;;;;;52.03;30.80;;;16.50;66.00;;;;;;5006137;28;20178;-86
2022/05/05 07:46:36;;;;;;;49.45;32.30;;;16.30;66.20;;;;;;4999280;28;20329;-84
2022/05/05 07:49:04;;;;;;;39.72;28.23;;;16.40;66.30;;;;;;5017020;28;20218;-84
2022/05/05 07:51:31;;;;;;;49.85;29.80;;;16.40;66.30;;;;;;5031115;28;20183;-85
2022/05/05 07:56:43;;;;;;;46.58;30.20;;;16.80;65.30;;;;;;5018641;28;20297;-85
2022/05/05 07:59:11;;;;;;;51.33;32.22;;;16.70;65.20;;;;;;4998870;28;20261;-84
2022/05/05 08:01:38;;;;;;;49.90;29.30;;;16.70;65.40;;;;;;4998349;28;20163;-85
2022/05/05 08:04:05;;;;;;;49.90;31.70;;;16.60;65.70;;;;;;4999889;28;20222;-83
2022/05/05 08:06:31;;;;;;;47.17;29.45;;;16.50;66.20;;;;;;5037361;28;20698;-84
2022/05/05 08:08:57;;;;;;;42.35;28.38;;;16.50;66.30;;;;;;5019508;28;20193;-85
2022/05/05 08:11:22;;;;;;;42.23;28.23;;;16.50;66.10;;;;;;5036771;28;20329;-84
2022/05/05 08:13:49;;;;;;;39.77;27.03;;;16.70;65.40;;;;;;5017718;28;20178;-86
2022/05/05 08:16:16;;;;;;;38.92;27.10;;;16.80;65.20;;;;;;5019498;28;20216;-85
2022/05/05 08:18:42;;;;;;;43.38;30.30;;;17.00;64.20;;;;;;5018203;28;20186;-85
2022/05/05 08:21:11;;;;;;;42.40;28.35;;;16.80;64.10;;;;;;5018654;28;20243;-85
2022/05/05 08:23:38;;;;;;;42.88;27.67;;;16.80;64.40;;;;;;4982431;28;20241;-84
2022/05/05 08:28:49;;;;;;;39.15;29.58;;;17.00;65.10;;;;;;5029047;28;20181;-85
2022/05/05 08:31:15;;;;;;;42.78;27.05;;;17.10;64.50;;;;;;5018754;28;20178;-85
2022/05/05 08:33:41;;;;;;;36.20;27.30;;;17.40;64.00;;;;;;5035988;28;20185;-84
2022/05/05 08:36:07;;;;;;;33.42;25.95;;;17.40;64.00;;;;;;5036194;28;20293;-84
2022/05/05 08:38:33;;;;;;;39.70;25.27;;;17.50;63.70;;;;;;4999894;28;20210;-85
2022/05/05 08:41:01;;;;;;;30.00;21.07;;;17.50;63.50;;;;;;5039451;28;20444;-83
2022/05/05 08:43:27;;;;;;;38.28;26.25;;;17.70;63.20;;;;;;5038119;28;20171;-85
2022/05/05 08:45:55;;;;;;;40.65;25.58;;;18.10;61.10;;;;;;5031468;28;20183;-86
2022/05/05 08:48:21;;;;;;;35.17;23.33;;;17.80;61.40;;;;;;5017945;28;20618;-85
2022/05/05 08:50:55;;;;;;;34.43;25.70;;;17.80;61.90;;;;;;5005525;28;20218;-86
2022/05/05 08:53:24;;;;;;;29.27;21.88;;;17.70;62.10;;;;;;5030799;28;20424;-86
2022/05/05 08:55:50;;;;;;;31.80;24.20;;;17.70;62.30;;;;;;5016406;28;20216;-84
2022/05/05 08:58:17;;;;;;;30.57;22.90;;;17.90;62.00;;;;;;5030710;28;20265;-85
2022/05/05 09:00:43;;;;;;;29.48;21.45;;;18.10;62.00;;;;;;5029702;28;20446;-85
2022/05/05 09:03:10;;;;;;;29.52;21.52;;;18.20;61.60;;;;;;5030610;28;20198;-85
2022/05/05 09:05:47;;;;;;;32.45;23.02;;;18.70;59.20;;;;;;4999325;28;20186;-85
2022/05/05 09:08:26;;;;;;;34.00;23.25;;;19.00;57.70;;;;;;5016321;28;20196;-84
2022/05/05 09:10:54;;;;;;;29.27;22.08;;;19.10;57.90;;;;;;5003295;28;20202;-85
2022/05/05 09:13:40;;;;;;;28.40;22.17;;;18.70;58.80;;;;;;5030426;28;20651;-85
2022/05/05 09:16:06;;;;;;;28.00;21.33;;;18.70;58.70;;;;;;5030082;28;20460;-85
2022/05/05 09:18:34;;;;;;;35.10;22.38;;;18.90;58.50;;;;;;5030061;28;20175;-85
2022/05/05 09:21:05;;;;;;;25.27;19.27;;;19.00;57.60;;;;;;5092116;22;20232;-86
2022/05/05 09:26:30;;;;;;;28.17;20.80;;;19.40;57.10;;;;;;5079688;28;20430;-86
2022/05/05 09:28:57;;;;;;;24.80;19.60;;;19.30;57.20;;;;;;5061765;28;21072;-85
2022/05/05 09:31:23;;;;;;;29.33;20.60;;;19.20;57.10;;;;;;5079870;28;20838;-85
2022/05/05 09:33:50;;;;;;;23.00;19.07;;;19.40;56.80;;;;;;5080785;28;20411;-85
2022/05/05 09:36:24;;;;;;;28.73;21.10;;;19.30;56.80;;;;;;5060226;28;20438;-85
2022/05/05 09:39:04;;;;;;;26.47;18.77;;;19.30;56.10;;;;;;5060990;28;20833;-85
2022/05/05 09:41:42;;;;;;;26.30;20.97;;;19.20;56.90;;;;;;5062743;28;20423;-85
2022/05/05 09:44:21;;;;;;;26.10;20.83;;;19.40;55.50;;;;;;5055578;28;20426;-85
2022/05/05 09:46:48;;;;;;;25.30;18.90;;;19.50;55.40;;;;;;5058355;28;20427;-85
2022/05/05 09:49:18;;;;;;;22.80;17.67;;;19.20;56.40;;;;;;5058587;28;20453;-84
2022/05/05 09:57:42;;;;;;;21.30;15.80;;;18.80;57.50;;;;;;5080650;28;20445;-85
2022/05/05 10:05:45;;;;;;;17.90;13.60;;;18.70;57.80;;;;;;5085395;28;20176;-86
2022/05/05 10:08:15;;;;;;;17.60;13.87;;;18.80;57.70;;;;;;5076450;28;20411;-85
2022/05/05 10:10:45;;;;;;;21.70;15.50;;;19.00;57.40;;;;;;5065338;28;20437;-85
2022/05/05 10:13:14;;;;;;;20.03;14.80;;;19.60;55.40;;;;;;5094343;28;20422;-86
2022/05/05 10:15:40;;;;;;;23.40;18.27;;;19.30;55.80;;;;;;5082304;28;20477;-85
2022/05/05 10:18:06;;;;;;;18.23;14.60;;;19.60;55.30;;;;;;5060080;28;20439;-85
2022/05/05 10:20:35;;;;;;;15.63;13.40;;;19.80;54.70;;;;;;5058315;28;20465;-86
2022/05/05 10:23:11;;;;;;;23.20;18.30;;;20.30;53.90;;;;;;5070482;28;20514;-86
2022/05/05 10:25:39;;;;;;;23.53;18.57;;;20.80;50.50;;;;;;5058794;28;20420;-85
2022/05/05 10:28:44;;;;;;;21.10;17.83;;;21.00;49.90;;;;;;5076012;28;20423;-86
2022/05/05 10:31:42;;;;;;;18.93;16.33;;;20.80;50.40;;;;;;5056702;28;20436;-86
2022/05/05 10:34:14;;;;;;;18.17;16.27;;;20.80;51.30;;;;;;5056518;28;20411;-87
2022/05/05 10:36:55;;;;;;;18.50;15.07;;;20.60;51.80;;;;;;5081434;28;20423;-85
2022/05/05 10:39:23;;;;;;;13.83;12.03;;;20.70;52.00;;;;;;5063627;28;20434;-87
2022/05/05 10:41:52;;;;;;;16.00;13.27;;;20.90;51.80;;;;;;5086531;28;20414;-85
2022/05/05 10:44:22;;;;;;;18.60;14.40;;;20.90;51.20;;;;;;5080646;28;20423;-84
2022/05/05 10:47:02;;;;;;;17.83;13.20;;;20.80;51.20;;;;;;5078416;28;20792;-88
2022/05/05 10:49:30;;;;;;;13.50;12.10;;;20.70;51.50;;;;;;5077784;28;20434;-84
2022/05/05 10:52:10;;;;;;;17.90;15.23;;;20.70;51.90;;;;;;5078022;28;20426;-84
2022/05/05 10:54:42;;;;;;;17.67;14.23;;;20.70;51.60;;;;;;5060684;28;20486;-85
2022/05/05 10:57:26;;;;;;;16.83;12.97;;;20.70;51.50;;;;;;5061617;28;20403;-85
2022/05/05 11:00:07;;;;;;;18.60;15.80;;;21.00;50.30;;;;;;5061423;28;20466;-84
2022/05/05 11:02:34;;;;;;;16.10;13.60;;;20.90;51.00;;;;;;5078749;28;20505;-85
2022/05/05 11:05:28;;;;;;;14.80;12.47;;;20.60;51.10;;;;;;5044886;28;20411;-84
2022/05/05 11:08:10;;;;;;;14.10;11.60;;;20.60;50.30;;;;;;5055947;28;20415;-84
2022/05/05 11:10:45;;;;;;;11.47;10.27;;;20.50;50.80;;;;;;5080152;28;20453;-84
2022/05/05 11:13:35;;;;;;;15.53;12.23;;;20.80;50.50;;;;;;5061004;28;20972;-85
2022/05/05 11:22:07;;;;;;;19.80;16.93;;;20.50;51.80;;;;;;5078048;28;20480;-84
2022/05/05 11:24:33;;;;;;;19.57;16.50;;;20.80;51.20;;;;;;5075094;28;20469;-84
2022/05/05 11:27:01;;;;;;;20.50;15.00;;;20.60;51.30;;;;;;5060537;28;20411;-84
2022/05/05 11:29:33;;;;;;;23.73;16.37;;;20.40;52.70;;;;;;5059947;28;20450;-83
2022/05/05 11:32:00;;;;;;;23.80;17.70;;;20.20;53.10;;;;;;5058345;28;20957;-84
2022/05/05 11:34:34;;;;;;;17.90;15.73;;;20.00;53.00;;;;;;5059079;28;20482;-84
2022/05/05 11:37:01;;;;;;;16.93;15.10;;;19.90;53.50;;;;;;5060387;28;20406;-83
2022/05/05 11:39:28;;;;;;;21.20;16.30;;;20.30;52.50;;;;;;5060029;28;20440;-84
2022/05/05 11:41:58;;;;;;;22.80;15.67;;;20.70;50.50;;;;;;5060129;28;20488;-85
2022/05/05 11:44:25;;;;;;;18.80;15.50;;;21.00;49.80;;;;;;5068159;28;20517;-84
2022/05/05 11:46:53;;;;;;;16.80;12.80;;;20.50;51.10;;;;;;5079942;28;20423;-84
2022/05/05 11:49:24;;;;;;;16.33;14.63;;;20.50;52.10;;;;;;5081505;28;20443;-85
2022/05/05 11:51:51;;;;;;;17.70;15.80;;;21.00;49.80;;;;;;5059263;28;21094;-84
2022/05/05 11:54:26;;;;;;;19.00;16.37;;;21.30;48.40;;;;;;5059022;28;20465;-85
2022/05/05 11:56:53;;;;;;;17.60;15.80;;;21.40;47.30;;;;;;5059465;28;20430;-85
2022/05/05 12:02:24;;;;;;;19.50;15.70;;;21.40;46.70;;;;;;5077215;28;20418;-83
2022/05/05 12:04:57;;;;;;;16.23;13.60;;;21.30;46.30;;;;;;5058345;28;20846;-85
2022/05/05 12:07:24;;;;;;;13.20;11.90;;;21.20;47.30;;;;;;5039224;28;20411;-84
2022/05/05 12:09:52;;;;;;;16.40;14.37;;;21.10;47.40;;;;;;5022410;28;20435;-83
2022/05/05 12:12:20;;;;;;;16.70;13.73;;;21.30;46.30;;;;;;5022316;28;20415;-85
2022/05/05 12:14:55;;;;;;;16.53;14.83;;;21.10;46.80;;;;;;5039197;28;20459;-85
2022/05/05 12:17:24;;;;;;;25.40;18.00;;;20.70;48.70;;;;;;5055321;28;20426;-84
2022/05/05 12:19:55;;;;;;;21.63;15.67;;;20.20;50.50;;;;;;5057705;28;20454;-84
2022/05/05 12:22:29;;;;;;;21.03;15.47;;;20.20;50.80;;;;;;5059260;28;20790;-84
2022/05/05 12:25:02;;;;;;;16.77;15.07;;;20.30;50.00;;;;;;5059031;28;20479;-84
2022/05/05 12:27:27;;;;;;;17.65;15.60;;;19.60;51.70;;;;;;5059064;28;20483;-84
2022/05/05 12:29:53;;;;;;;21.90;15.60;;;19.70;51.80;;;;;;5059214;28;20228;-84
2022/05/05 12:32:19;;;;;;;20.20;15.50;;;19.70;51.40;;;;;;5059064;28;20180;-84
2022/05/05 12:34:47;;;;;;;19.58;16.85;;;19.70;51.80;;;;;;5059719;28;20462;-84
2022/05/05 12:37:19;;;;;;;21.63;17.63;;;19.60;52.70;;;;;;5059916;28;20240;-84
2022/05/05 12:40:15;;;;;;;19.77;16.00;;;19.60;53.50;;;;;;5060896;28;20207;-84
2022/05/05 12:42:43;;;;;;;26.65;14.98;;;19.40;52.50;;;;;;5085758;28;20188;-86
2022/05/05 12:45:15;;;;;;;20.60;16.75;;;19.40;53.40;;;;;;5085806;28;20183;-84
2022/05/05 12:47:43;;;;;;;20.73;17.15;;;19.50;54.10;;;;;;5091888;28;20184;-90
2022/05/05 12:50:34;;;;;;;21.05;16.95;;;19.50;53.90;;;;;;5096133;28;20199;-86
2022/05/05 13:01:31;;;;;;;19.90;14.55;;;19.20;55.50;;;;;;5076061;28;20532;-84
2022/05/05 13:04:05;;;;;;;20.10;15.20;;;19.20;55.80;;;;;;5058267;28;20628;-84
2022/05/05 13:06:31;;;;;;;25.95;17.23;;;19.20;55.80;;;;;;5076481;28;20149;-85
2022/05/05 13:08:57;;;;;;;22.10;16.30;;;19.30;55.30;;;;;;5058746;28;20184;-84
2022/05/05 13:11:23;;;;;;;23.83;19.40;;;19.40;55.10;;;;;;5058409;28;20199;-83
2022/05/05 13:13:51;;;;;;;22.42;17.02;;;19.40;55.10;;;;;;5058438;28;20244;-84
2022/05/05 13:16:17;;;;;;;28.27;19.05;;;19.30;55.30;;;;;;5037557;28;20204;-84
2022/05/05 13:18:43;;;;;;;22.20;17.97;;;19.30;55.40;;;;;;5036886;28;20609;-84
2022/05/05 13:21:10;;;;;;;28.13;19.95;;;19.60;54.70;;;;;;5044154;28;20212;-84
2022/05/05 13:23:36;;;;;;;25.45;19.02;;;19.70;55.00;;;;;;5059424;28;20267;-84
2022/05/05 13:26:03;;;;;;;28.25;19.75;;;19.60;55.90;;;;;;5058097;28;20218;-84
2022/05/05 13:28:31;;;;;;;24.25;21.30;;;19.50;56.40;;;;;;5060252;28;20259;-84
2022/05/05 13:30:57;;;;;;;26.70;20.58;;;19.40;57.00;;;;;;5079855;28;20196;-85